Clare, United Kingdom
Current Conditions -  °F | °C
As of 4:50 PM on Wednesday 26 Nov 2014 (Local Time) from EGUW Reporting Station
Moderate Fog Moderate Fog  
Wind Chill: 48°   Ceiling: Unl
Heat Index: 48°   Visibility: 0.18mi
Dew Point: 48°   Wind: 1mph
Humidity: 100%   Direction: 150°SSE
Pressure: 29.8"   Gusts: NA
Location:  52.08°N, 0.58°E
Report Text: EGUW 261650Z 15001KT 0300 FG OVC000 09/09 Q1009 RED NOSIG
Loading
Personal Weather Stations






























Interactive Weather Map New forecast layout! Learn more

10-Day Weather Forecast

Advertisements
Track Severe Weather on mobile